Tosontsengel, Mongolia
Current Conditions -  °F | °C
As of 8:00 PM on Tuesday 21 Oct 2014 (Local Time) from UIII Reporting Station
Clear Clear  
Wind Chill: 24°   Ceiling: Unl
Heat Index: 34°   Visibility: 6mi
Dew Point: 27°   Wind: 13mph
Humidity: 75%   Direction: 160°SSE
Pressure: 29.83"   Gusts: NA
Location:  48.73°N, 98.2°E
Report Text: UIII 211200Z 16006MPS CAVOK 01/M03 Q1010 NOSIG RMK QFE715/095412CLRD60
Loading
Personal Weather Stations






























Interactive Weather Map
Tropical Storm Tracking
New forecast layout! Learn more

10-Day Weather Forecast

Advertisements
Track Severe Weather on mobile